»·PEaware :: N851TX KDCA-CYSU

N851TX :: KDCA-CYSU

FLIGHT INFORMATION

Flight Status: Arrived
Operator: Privately registered:
United States
More flights under this callsign
Pilot: Andrew J. (13363)
Aircraft: SOCATA TBM-900
(TBM9)
More flights by this aircraft type
Origin: KDCA Ronald Reagan Washington Natl
United States
Destination: CYSU Summerside
Canada
More flights between these airports :: More routes between these airports
Route: HERTO3 JERES J220 BEETS Q480 ENE J573 YYG
File this flight plan on PilotEdge
Remarks:
Altitude:
(Current/Filed)
31,000ft
Speed:
(Current/Filed)
307kts
Departed: 18-Jul-18 02:10 PM
Arrived: 18-Jul-18 04:31 PM
Distance/Time
Traveled:
738nm/2:21
Distance/Time
To Go:
Arrived

Flight Plot

Page will automatically refresh every two minutes.

Flight plan parsing failed; only flown route is shown


Map Options




Map Legend


Flown Route
Filed Route
Departure Airport
Arrival Airport
Navaid (VOR, NDB)
Fix

Horizontal Profiles

Position Reports

Time Latitude Longitude Heading Altitude Ground
Speed
18-Jul-18 14:04 38.846241 -77.044556 44 17ft 0kts
18-Jul-18 14:05 38.846241 -77.044556 44 17ft 0kts
18-Jul-18 14:06 38.846241 -77.044556 44 17ft 0kts
18-Jul-18 14:07 38.846305 -77.044484 26 17ft 3kts
18-Jul-18 14:08 38.845036 -77.041380 161 17ft 16kts
18-Jul-18 14:09 38.842970 -77.038196 111 17ft 9kts
18-Jul-18 14:10 38.843004 -77.036901 359 17ft 16kts
18-Jul-18 14:11 38.875436 -77.044503 326 659ft 169kts
18-Jul-18 14:12 38.909031 -77.090167 297 2434ft 173kts
18-Jul-18 14:13 38.938054 -77.126162 327 4796ft 145kts
18-Jul-18 14:14 38.968876 -77.159624 318 6643ft 148kts
18-Jul-18 14:15 38.987469 -77.203855 278 8406ft 152kts
18-Jul-18 14:16 38.993169 -77.258025 314 10293ft 154kts
18-Jul-18 14:17 39.029430 -77.285404 332 12360ft 154kts
18-Jul-18 14:18 39.066486 -77.312152 332 14284ft 155kts
18-Jul-18 14:19 39.103253 -77.338673 331 16140ft 155kts
18-Jul-18 14:20 39.140630 -77.365628 330 17855ft 156kts
18-Jul-18 14:21 39.178513 -77.392954 329 19564ft 161kts
18-Jul-18 14:22 39.216964 -77.420654 328 21586ft 160kts
18-Jul-18 14:23 39.255939 -77.448300 332 23337ft 165kts
18-Jul-18 14:24 39.302422 -77.458697 348 25201ft 177kts
18-Jul-18 14:25 39.352222 -77.459564 349 26821ft 185kts
18-Jul-18 14:26 39.404433 -77.458934 349 28270ft 192kts
18-Jul-18 14:27 39.458726 -77.458073 348 29570ft 199kts
18-Jul-18 14:28 39.514901 -77.457172 348 30631ft 211kts
18-Jul-18 14:29 39.576602 -77.456234 349 31055ft 243kts
18-Jul-18 14:30 39.648318 -77.454998 350 31037ft 271kts
18-Jul-18 14:31 39.725724 -77.453682 351 31026ft 284kts
18-Jul-18 14:32 39.805375 -77.452350 351 31023ft 290kts
18-Jul-18 14:33 39.886167 -77.451005 351 31022ft 292kts
18-Jul-18 14:34 39.964452 -77.416860 36 31021ft 331kts
18-Jul-18 14:35 40.012229 -77.312396 56 31016ft 344kts
18-Jul-18 14:36 40.057314 -77.202087 56 31012ft 345kts
18-Jul-18 14:37 40.101972 -77.092548 56 31010ft 345kts
18-Jul-18 14:38 40.146867 -76.982060 56 31008ft 347kts
18-Jul-18 14:39 40.192277 -76.869889 57 31004ft 351kts
18-Jul-18 14:40 40.237902 -76.756691 57 31008ft 356kts
18-Jul-18 14:41 40.284086 -76.641702 57 31015ft 359kts
18-Jul-18 14:42 40.330208 -76.526443 57 31023ft 360kts
18-Jul-18 14:43 40.375807 -76.409686 58 31021ft 362kts
18-Jul-18 14:44 40.417004 -76.302943 59 31009ft 362kts
18-Jul-18 14:45 40.462144 -76.185527 59 31001ft 361kts
18-Jul-18 14:46 40.507123 -76.068080 59 30990ft 361kts
18-Jul-18 14:47 40.551935 -75.950596 59 30991ft 361kts
18-Jul-18 14:48 40.596758 -75.832610 59 30992ft 361kts
18-Jul-18 14:49 40.641421 -75.714157 59 30998ft 362kts
18-Jul-18 14:50 40.685888 -75.595695 59 31003ft 362kts
18-Jul-18 14:51 40.730425 -75.476565 59 30999ft 363kts
18-Jul-18 14:52 40.777010 -75.359176 51 31000ft 360kts
18-Jul-18 14:53 40.819857 -75.271278 52 30992ft 359kts
18-Jul-18 14:54 40.873544 -75.160982 52 31015ft 358kts
18-Jul-18 14:55 40.927017 -75.050783 52 31024ft 359kts
18-Jul-18 14:56 40.981777 -74.940480 49 31014ft 361kts
18-Jul-18 14:57 41.041519 -74.832985 49 30996ft 364kts
18-Jul-18 14:58 41.100927 -74.725751 49 30997ft 364kts
18-Jul-18 14:59 41.160092 -74.618611 49 30993ft 363kts
18-Jul-18 15:00 41.219557 -74.510540 49 30994ft 363kts
18-Jul-18 15:01 41.282598 -74.406966 43 30996ft 360kts
18-Jul-18 15:02 41.342498 -74.316255 44 30979ft 360kts
18-Jul-18 15:03 41.407855 -74.216924 44 30977ft 359kts
18-Jul-18 15:04 41.473075 -74.117469 44 30976ft 359kts
18-Jul-18 15:05 41.538225 -74.017803 44 30966ft 359kts
18-Jul-18 15:06 41.603430 -73.917696 44 30956ft 360kts
18-Jul-18 15:07 41.667745 -73.816298 53 30953ft 363kts
18-Jul-18 15:08 41.720512 -73.701390 55 30958ft 364kts
18-Jul-18 15:09 41.772949 -73.585896 55 30966ft 364kts
18-Jul-18 15:10 41.825296 -73.470163 55 30984ft 365kts
18-Jul-18 15:11 41.877808 -73.353607 55 31002ft 365kts
18-Jul-18 15:12 41.926538 -73.245215 56 30991ft 364kts
18-Jul-18 15:13 41.978673 -73.128881 56 30986ft 365kts
18-Jul-18 15:14 42.031138 -73.011358 57 30975ft 370kts
18-Jul-18 15:15 42.084331 -72.891656 57 30971ft 376kts
18-Jul-18 15:16 42.137966 -72.770482 57 30963ft 379kts
18-Jul-18 15:17 42.199160 -72.656301 46 30964ft 377kts
18-Jul-18 15:18 42.266337 -72.548037 46 30961ft 378kts
18-Jul-18 15:19 42.332313 -72.441280 46 30961ft 378kts
18-Jul-18 15:20 42.398851 -72.333238 47 30965ft 379kts
18-Jul-18 15:21 42.464562 -72.226116 47 30977ft 377kts
18-Jul-18 15:22 42.530983 -72.117456 47 30975ft 377kts
18-Jul-18 15:23 42.597665 -72.007979 47 30970ft 378kts
18-Jul-18 15:24 42.664197 -71.898342 47 30976ft 378kts
18-Jul-18 15:25 42.730245 -71.789083 47 30973ft 379kts
18-Jul-18 15:26 42.796264 -71.679474 47 30975ft 379kts
18-Jul-18 15:27 42.862615 -71.568899 47 30971ft 380kts
18-Jul-18 15:28 42.929297 -71.457366 47 30958ft 379kts
18-Jul-18 15:29 42.994767 -71.347435 48 30948ft 377kts
18-Jul-18 15:30 43.059846 -71.237753 48 30936ft 372kts
18-Jul-18 15:31 43.112639 -71.148483 48 30932ft 369kts
18-Jul-18 15:32 43.176851 -71.039532 48 30932ft 367kts
18-Jul-18 15:33 43.240833 -70.930568 48 30930ft 370kts
18-Jul-18 15:34 43.316443 -70.801309 49 30938ft 377kts
18-Jul-18 15:35 43.382110 -70.688518 49 30949ft 382kts
18-Jul-18 15:36 43.446152 -70.572382 54 30951ft 385kts
18-Jul-18 15:37 43.496673 -70.470877 54 30949ft 387kts
18-Jul-18 15:38 43.556823 -70.349521 55 30946ft 388kts
18-Jul-18 15:39 43.617079 -70.227439 55 30933ft 387kts
18-Jul-18 15:40 43.677238 -70.105046 55 30936ft 387kts
18-Jul-18 15:41 43.737538 -69.981849 55 30940ft 387kts
18-Jul-18 15:42 43.797511 -69.858848 55 30941ft 388kts
18-Jul-18 15:43 43.857607 -69.735050 55 30943ft 388kts
18-Jul-18 15:44 43.917807 -69.610461 55 30945ft 389kts
18-Jul-18 15:45 43.977766 -69.485881 55 30940ft 389kts
18-Jul-18 15:46 44.037799 -69.360599 55 30933ft 390kts
18-Jul-18 15:47 44.097307 -69.235894 56 30920ft 389kts
18-Jul-18 15:48 44.156380 -69.111584 56 30911ft 387kts
18-Jul-18 15:49 44.215652 -68.986382 57 30913ft 388kts
18-Jul-18 15:50 44.275045 -68.860292 58 30916ft 391kts
18-Jul-18 15:51 44.334726 -68.732947 58 30914ft 393kts
18-Jul-18 15:52 44.394469 -68.604970 58 30912ft 395kts
18-Jul-18 15:53 44.454256 -68.476336 58 30914ft 396kts
18-Jul-18 15:54 44.513575 -68.348162 59 30916ft 396kts
18-Jul-18 15:55 44.573060 -68.219079 60 30906ft 395kts
18-Jul-18 15:56 44.632367 -68.089729 59 30909ft 395kts
18-Jul-18 15:57 44.691674 -67.959825 59 30911ft 395kts
18-Jul-18 15:58 44.750913 -67.829522 59 30914ft 397kts
18-Jul-18 15:59 44.809926 -67.699067 59 30917ft 398kts
18-Jul-18 16:00 44.869161 -67.567546 59 30919ft 398kts
18-Jul-18 16:01 44.928282 -67.435680 59 30922ft 399kts
18-Jul-18 16:02 44.987202 -67.303632 60 30893ft 400kts
18-Jul-18 16:03 45.045915 -67.171412 60 30877ft 398kts
18-Jul-18 16:04 45.103933 -67.040325 61 30874ft 397kts
18-Jul-18 16:05 45.162367 -66.907482 62 30866ft 397kts
18-Jul-18 16:06 45.220468 -66.774760 62 30869ft 398kts
18-Jul-18 16:07 45.278543 -66.641548 62 30872ft 399kts
18-Jul-18 16:08 45.336706 -66.507509 62 30874ft 400kts
18-Jul-18 16:09 45.394504 -66.373678 62 30877ft 400kts
18-Jul-18 16:10 45.451573 -66.240894 63 30867ft 399kts
18-Jul-18 16:11 45.508590 -66.107473 61 30881ft 397kts
18-Jul-18 16:12 45.565481 -65.973972 61 30882ft 396kts
18-Jul-18 16:13 45.622205 -65.840115 62 30884ft 395kts
18-Jul-18 16:14 45.679548 -65.703995 61 29978ft 419kts
18-Jul-18 16:15 45.740005 -65.559926 60 28401ft 432kts
18-Jul-18 16:16 45.800482 -65.415062 60 26814ft 432kts
18-Jul-18 16:17 45.858866 -65.274479 60 25190ft 413kts
18-Jul-18 16:18 45.915470 -65.137483 60 23527ft 401kts
18-Jul-18 16:19 45.970149 -65.004548 59 21880ft 389kts
18-Jul-18 16:20 46.023407 -64.874454 60 20183ft 383kts
18-Jul-18 16:21 46.075744 -64.745900 60 18278ft 373kts
18-Jul-18 16:22 46.125584 -64.622973 60 16332ft 357kts
18-Jul-18 16:23 46.174094 -64.502818 60 14363ft 346kts
18-Jul-18 16:24 46.221071 -64.386010 59 12604ft 332kts
18-Jul-18 16:25 46.265382 -64.275399 61 10322ft 308kts
18-Jul-18 16:26 46.305312 -64.175245 62 8024ft 281kts
18-Jul-18 16:27 46.343385 -64.079394 62 5576ft 272kts
18-Jul-18 16:28 46.372661 -63.987340 92 3167ft 239kts
18-Jul-18 16:29 46.376343 -63.900575 58 1705ft 201kts
18-Jul-18 16:30 46.410436 -63.864602 34 655ft 108kts
18-Jul-18 16:31 46.434025 -63.840020 35 67ft 96kts
18-Jul-18 16:32 46.442081 -63.830197 172 59ft 15kts
18-Jul-18 16:33 46.438934 -63.832843 214 59ft 10kts
18-Jul-18 16:34 46.437154 -63.831372 62 59ft 0kts
18-Jul-18 16:35 46.437156 -63.831365 62 59ft 0kts
18-Jul-18 16:36 46.437156 -63.831365 62 59ft 0kts
18-Jul-18 16:37 46.437156 -63.831365 62 59ft 0kts
18-Jul-18 16:38 46.437156 -63.831365 62 59ft 0kts
18-Jul-18 16:39 46.437156 -63.831365 62 59ft 0kts
18-Jul-18 16:40 46.437156 -63.831365 62 59ft 0kts
18-Jul-18 16:41 46.437156 -63.831365 62 59ft 0kts
18-Jul-18 16:42 46.437156 -63.831365 62 59ft 0kts

Navigation Log

Ident Type
Flight plan parsing failed, navigation log unavailable